sensor_id;sensor_type;location;lat;lon;timestamp;P1;durP1;ratioP1;P2;durP2;ratioP2
57233;SDS011;43090;52.604;13.318;2023-07-13T00:00:38;4.55;;;2.10;;
57233;SDS011;43090;52.604;13.318;2023-07-13T00:03:05;7.72;;;2.42;;
57233;SDS011;43090;52.604;13.318;2023-07-13T00:07:58;5.20;;;1.85;;
57233;SDS011;43090;52.604;13.318;2023-07-13T00:10:25;6.65;;;2.60;;
57233;SDS011;43090;52.604;13.318;2023-07-13T00:12:52;6.45;;;2.20;;
57233;SDS011;43090;52.604;13.318;2023-07-13T00:15:22;5.80;;;2.40;;
57233;SDS011;43090;52.604;13.318;2023-07-13T00:17:54;4.18;;;2.42;;
57233;SDS011;43090;52.604;13.318;2023-07-13T00:20:22;9.75;;;2.50;;
57233;SDS011;43090;52.604;13.318;2023-07-13T00:22:51;5.97;;;2.65;;
57233;SDS011;43090;52.604;13.318;2023-07-13T00:25:20;4.50;;;2.20;;
57233;SDS011;43090;52.604;13.318;2023-07-13T00:27:48;6.20;;;2.78;;
57233;SDS011;43090;52.604;13.318;2023-07-13T00:30:15;7.93;;;2.38;;
57233;SDS011;43090;52.604;13.318;2023-07-13T00:32:41;7.25;;;2.53;;
57233;SDS011;43090;52.604;13.318;2023-07-13T00:35:08;5.90;;;2.25;;
57233;SDS011;43090;52.604;13.318;2023-07-13T00:37:35;3.88;;;2.05;;
57233;SDS011;43090;52.604;13.318;2023-07-13T00:40:05;4.97;;;1.90;;
57233;SDS011;43090;52.604;13.318;2023-07-13T00:42:32;11.20;;;2.83;;
57233;SDS011;43090;52.604;13.318;2023-07-13T00:50:06;6.57;;;2.20;;
57233;SDS011;43090;52.604;13.318;2023-07-13T00:52:35;11.73;;;2.20;;
57233;SDS011;43090;52.604;13.318;2023-07-13T00:55:04;3.88;;;2.30;;
57233;SDS011;43090;52.604;13.318;2023-07-13T00:57:31;5.78;;;2.65;;
57233;SDS011;43090;52.604;13.318;2023-07-13T00:59:58;4.35;;;2.22;;
57233;SDS011;43090;52.604;13.318;2023-07-13T01:02:28;4.07;;;2.30;;
57233;SDS011;43090;52.604;13.318;2023-07-13T01:04:55;6.13;;;2.53;;
57233;SDS011;43090;52.604;13.318;2023-07-13T01:07:22;4.68;;;2.40;;
57233;SDS011;43090;52.604;13.318;2023-07-13T01:09:49;7.57;;;3.35;;
57233;SDS011;43090;52.604;13.318;2023-07-13T01:14:42;4.68;;;2.03;;
57233;SDS011;43090;52.604;13.318;2023-07-13T01:17:09;4.15;;;2.40;;
57233;SDS011;43090;52.604;13.318;2023-07-13T01:19:41;5.10;;;2.03;;
57233;SDS011;43090;52.604;13.318;2023-07-13T01:22:15;7.07;;;2.10;;
57233;SDS011;43090;52.604;13.318;2023-07-13T01:24:45;3.65;;;1.98;;
57233;SDS011;43090;52.604;13.318;2023-07-13T01:27:14;5.00;;;2.55;;
57233;SDS011;43090;52.604;13.318;2023-07-13T01:29:44;6.38;;;2.65;;
57233;SDS011;43090;52.604;13.318;2023-07-13T01:32:14;5.57;;;2.13;;
57233;SDS011;43090;52.604;13.318;2023-07-13T01:34:51;4.05;;;2.20;;
57233;SDS011;43090;52.604;13.318;2023-07-13T01:51:44;4.18;;;2.55;;
57233;SDS011;43090;52.604;13.318;2023-07-13T01:54:10;6.07;;;2.95;;
57233;SDS011;43090;52.604;13.318;2023-07-13T01:56:37;9.25;;;2.58;;
57233;SDS011;43090;52.604;13.318;2023-07-13T01:59:03;6.25;;;2.90;;
57233;SDS011;43090;52.604;13.318;2023-07-13T02:01:30;6.55;;;3.03;;
57233;SDS011;43090;52.604;13.318;2023-07-13T02:06:23;5.57;;;2.90;;
57233;SDS011;43090;52.604;13.318;2023-07-13T02:08:52;4.20;;;2.67;;
57233;SDS011;43090;52.604;13.318;2023-07-13T02:11:19;5.57;;;2.72;;
57233;SDS011;43090;52.604;13.318;2023-07-13T02:13:45;4.95;;;2.47;;
57233;SDS011;43090;52.604;13.318;2023-07-13T02:16:12;6.22;;;2.70;;
57233;SDS011;43090;52.604;13.318;2023-07-13T02:18:39;8.30;;;2.63;;
57233;SDS011;43090;52.604;13.318;2023-07-13T02:21:05;5.05;;;2.65;;
57233;SDS011;43090;52.604;13.318;2023-07-13T02:23:32;3.85;;;2.38;;
57233;SDS011;43090;52.604;13.318;2023-07-13T02:28:26;5.93;;;2.47;;
57233;SDS011;43090;52.604;13.318;2023-07-13T02:30:53;5.65;;;2.65;;
57233;SDS011;43090;52.604;13.318;2023-07-13T02:33:19;7.57;;;2.95;;
57233;SDS011;43090;52.604;13.318;2023-07-13T02:35:46;5.15;;;2.30;;
57233;SDS011;43090;52.604;13.318;2023-07-13T02:38:12;5.63;;;2.88;;
57233;SDS011;43090;52.604;13.318;2023-07-13T02:40:39;7.93;;;3.13;;
57233;SDS011;43090;52.604;13.318;2023-07-13T02:43:06;6.82;;;3.00;;
57233;SDS011;43090;52.604;13.318;2023-07-13T02:45:32;5.18;;;2.35;;
57233;SDS011;43090;52.604;13.318;2023-07-13T02:47:59;6.13;;;2.75;;
57233;SDS011;43090;52.604;13.318;2023-07-13T02:50:25;5.35;;;2.50;;
57233;SDS011;43090;52.604;13.318;2023-07-13T02:52:52;7.68;;;2.50;;
57233;SDS011;43090;52.604;13.318;2023-07-13T02:55:18;6.72;;;2.90;;
57233;SDS011;43090;52.604;13.318;2023-07-13T02:57:45;6.57;;;2.40;;
57233;SDS011;43090;52.604;13.318;2023-07-13T03:00:11;10.45;;;2.97;;
57233;SDS011;43090;52.604;13.318;2023-07-13T03:02:38;4.57;;;2.10;;
57233;SDS011;43090;52.604;13.318;2023-07-13T03:07:32;8.00;;;2.67;;
57233;SDS011;43090;52.604;13.318;2023-07-13T03:12:25;5.45;;;2.25;;
57233;SDS011;43090;52.604;13.318;2023-07-13T03:17:18;4.88;;;2.35;;
57233;SDS011;43090;52.604;13.318;2023-07-13T03:22:19;6.28;;;2.92;;
57233;SDS011;43090;52.604;13.318;2023-07-13T03:24:46;8.05;;;2.50;;
57233;SDS011;43090;52.604;13.318;2023-07-13T03:27:13;6.25;;;2.40;;
57233;SDS011;43090;52.604;13.318;2023-07-13T03:29:39;6.40;;;2.58;;
57233;SDS011;43090;52.604;13.318;2023-07-13T03:32:06;8.65;;;3.78;;
57233;SDS011;43090;52.604;13.318;2023-07-13T03:34:33;5.03;;;2.45;;
57233;SDS011;43090;52.604;13.318;2023-07-13T03:36:59;4.65;;;2.85;;
57233;SDS011;43090;52.604;13.318;2023-07-13T03:39:26;7.03;;;3.08;;
57233;SDS011;43090;52.604;13.318;2023-07-13T03:44:19;5.00;;;2.60;;
57233;SDS011;43090;52.604;13.318;2023-07-13T03:46:45;8.45;;;2.75;;
57233;SDS011;43090;52.604;13.318;2023-07-13T03:49:12;5.25;;;2.47;;
57233;SDS011;43090;52.604;13.318;2023-07-13T03:51:39;8.23;;;2.30;;
57233;SDS011;43090;52.604;13.318;2023-07-13T03:54:05;8.98;;;3.00;;
57233;SDS011;43090;52.604;13.318;2023-07-13T03:56:32;4.32;;;2.35;;
57233;SDS011;43090;52.604;13.318;2023-07-13T03:59:00;6.93;;;2.20;;
57233;SDS011;43090;52.604;13.318;2023-07-13T04:01:26;5.65;;;2.28;;
57233;SDS011;43090;52.604;13.318;2023-07-13T04:03:53;5.43;;;2.75;;
57233;SDS011;43090;52.604;13.318;2023-07-13T04:06:21;6.10;;;2.47;;
57233;SDS011;43090;52.604;13.318;2023-07-13T04:08:51;5.40;;;2.70;;
57233;SDS011;43090;52.604;13.318;2023-07-13T04:11:23;4.03;;;2.20;;
57233;SDS011;43090;52.604;13.318;2023-07-13T04:13:51;4.50;;;2.20;;
57233;SDS011;43090;52.604;13.318;2023-07-13T04:16:17;7.13;;;2.63;;
57233;SDS011;43090;52.604;13.318;2023-07-13T04:18:46;5.70;;;2.58;;
57233;SDS011;43090;52.604;13.318;2023-07-13T04:21:14;3.55;;;2.30;;
57233;SDS011;43090;52.604;13.318;2023-07-13T04:23:41;5.43;;;2.53;;
57233;SDS011;43090;52.604;13.318;2023-07-13T04:26:08;6.22;;;2.50;;
57233;SDS011;43090;52.604;13.318;2023-07-13T04:28:35;4.65;;;2.20;;
57233;SDS011;43090;52.604;13.318;2023-07-13T04:31:02;3.50;;;2.15;;
57233;SDS011;43090;52.604;13.318;2023-07-13T04:33:29;4.35;;;2.38;;
57233;SDS011;43090;52.604;13.318;2023-07-13T04:35:56;4.45;;;2.08;;
57233;SDS011;43090;52.604;13.318;2023-07-13T04:38:24;6.78;;;2.65;;
57233;SDS011;43090;52.604;13.318;2023-07-13T04:40:58;8.80;;;2.60;;
57233;SDS011;43090;52.604;13.318;2023-07-13T04:43:27;3.90;;;2.60;;
57233;SDS011;43090;52.604;13.318;2023-07-13T04:45:54;4.43;;;2.22;;
57233;SDS011;43090;52.604;13.318;2023-07-13T04:48:21;3.88;;;2.30;;
57233;SDS011;43090;52.604;13.318;2023-07-13T04:50:53;5.97;;;2.55;;
57233;SDS011;43090;52.604;13.318;2023-07-13T04:53:21;6.57;;;2.72;;
57233;SDS011;43090;52.604;13.318;2023-07-13T04:55:48;5.47;;;2.25;;
57233;SDS011;43090;52.604;13.318;2023-07-13T04:58:14;5.47;;;2.58;;
57233;SDS011;43090;52.604;13.318;2023-07-13T05:00:41;5.05;;;2.45;;
57233;SDS011;43090;52.604;13.318;2023-07-13T05:03:07;4.68;;;3.10;;
57233;SDS011;43090;52.604;13.318;2023-07-13T05:05:34;5.78;;;2.33;;
57233;SDS011;43090;52.604;13.318;2023-07-13T05:08:01;5.70;;;2.20;;
57233;SDS011;43090;52.604;13.318;2023-07-13T05:10:28;3.88;;;2.20;;
57233;SDS011;43090;52.604;13.318;2023-07-13T05:12:57;6.70;;;2.67;;
57233;SDS011;43090;52.604;13.318;2023-07-13T05:15:24;6.60;;;2.40;;
57233;SDS011;43090;52.604;13.318;2023-07-13T05:17:51;3.83;;;2.25;;
57233;SDS011;43090;52.604;13.318;2023-07-13T05:20:18;5.93;;;2.63;;
57233;SDS011;43090;52.604;13.318;2023-07-13T05:22:45;6.95;;;2.72;;
57233;SDS011;43090;52.604;13.318;2023-07-13T05:25:15;4.82;;;2.65;;
57233;SDS011;43090;52.604;13.318;2023-07-13T05:27:41;5.78;;;2.75;;
57233;SDS011;43090;52.604;13.318;2023-07-13T05:30:08;5.47;;;2.75;;
57233;SDS011;43090;52.604;13.318;2023-07-13T05:32:37;9.45;;;2.83;;
57233;SDS011;43090;52.604;13.318;2023-07-13T05:35:04;8.55;;;2.40;;
57233;SDS011;43090;52.604;13.318;2023-07-13T05:37:31;6.35;;;3.05;;
57233;SDS011;43090;52.604;13.318;2023-07-13T05:39:58;4.63;;;2.05;;
57233;SDS011;43090;52.604;13.318;2023-07-13T05:42:25;8.05;;;2.30;;
57233;SDS011;43090;52.604;13.318;2023-07-13T05:44:51;5.65;;;2.22;;
57233;SDS011;43090;52.604;13.318;2023-07-13T05:47:18;5.18;;;2.20;;
57233;SDS011;43090;52.604;13.318;2023-07-13T05:49:45;4.50;;;1.92;;
57233;SDS011;43090;52.604;13.318;2023-07-13T05:52:11;6.82;;;2.60;;
57233;SDS011;43090;52.604;13.318;2023-07-13T05:54:38;4.63;;;2.00;;
57233;SDS011;43090;52.604;13.318;2023-07-13T05:57:04;3.30;;;1.90;;
57233;SDS011;43090;52.604;13.318;2023-07-13T05:59:31;7.63;;;1.90;;
57233;SDS011;43090;52.604;13.318;2023-07-13T06:04:24;5.40;;;1.90;;
57233;SDS011;43090;52.604;13.318;2023-07-13T06:06:51;8.38;;;1.88;;
57233;SDS011;43090;52.604;13.318;2023-07-13T06:11:44;7.68;;;1.92;;
57233;SDS011;43090;52.604;13.318;2023-07-13T06:16:39;6.57;;;2.00;;
57233;SDS011;43090;52.604;13.318;2023-07-13T06:19:06;4.15;;;1.55;;
57233;SDS011;43090;52.604;13.318;2023-07-13T06:21:33;4.38;;;2.55;;
57233;SDS011;43090;52.604;13.318;2023-07-13T06:23:59;7.15;;;2.40;;
57233;SDS011;43090;52.604;13.318;2023-07-13T06:26:26;5.97;;;2.00;;
57233;SDS011;43090;52.604;13.318;2023-07-13T06:28:52;2.40;;;1.70;;
57233;SDS011;43090;52.604;13.318;2023-07-13T06:31:19;6.65;;;1.60;;
57233;SDS011;43090;52.604;13.318;2023-07-13T06:33:45;4.82;;;1.75;;
57233;SDS011;43090;52.604;13.318;2023-07-13T06:36:12;3.78;;;1.88;;
57233;SDS011;43090;52.604;13.318;2023-07-13T06:41:06;5.38;;;1.95;;
57233;SDS011;43090;52.604;13.318;2023-07-13T06:43:34;5.43;;;1.80;;
57233;SDS011;43090;52.604;13.318;2023-07-13T06:48:27;5.30;;;1.90;;
57233;SDS011;43090;52.604;13.318;2023-07-13T06:50:54;7.65;;;2.58;;
57233;SDS011;43090;52.604;13.318;2023-07-13T06:53:21;3.00;;;1.38;;
57233;SDS011;43090;52.604;13.318;2023-07-13T06:55:48;6.75;;;1.90;;
57233;SDS011;43090;52.604;13.318;2023-07-13T06:58:18;4.18;;;1.92;;
57233;SDS011;43090;52.604;13.318;2023-07-13T07:00:45;4.22;;;1.80;;
57233;SDS011;43090;52.604;13.318;2023-07-13T07:03:13;3.08;;;1.80;;
57233;SDS011;43090;52.604;13.318;2023-07-13T07:05:40;7.88;;;1.50;;
57233;SDS011;43090;52.604;13.318;2023-07-13T07:08:06;5.72;;;1.85;;
57233;SDS011;43090;52.604;13.318;2023-07-13T07:12:59;4.03;;;1.50;;
57233;SDS011;43090;52.604;13.318;2023-07-13T07:15:26;5.15;;;1.45;;
57233;SDS011;43090;52.604;13.318;2023-07-13T07:17:53;3.22;;;1.60;;
57233;SDS011;43090;52.604;13.318;2023-07-13T07:22:46;2.55;;;1.52;;
57233;SDS011;43090;52.604;13.318;2023-07-13T07:25:13;3.83;;;1.60;;
57233;SDS011;43090;52.604;13.318;2023-07-13T07:30:09;4.40;;;1.80;;
57233;SDS011;43090;52.604;13.318;2023-07-13T07:32:39;4.18;;;1.85;;
57233;SDS011;43090;52.604;13.318;2023-07-13T07:35:08;3.58;;;1.52;;
57233;SDS011;43090;52.604;13.318;2023-07-13T07:40:05;9.00;;;1.45;;
57233;SDS011;43090;52.604;13.318;2023-07-13T07:42:35;3.55;;;1.30;;
57233;SDS011;43090;52.604;13.318;2023-07-13T07:45:02;4.78;;;1.88;;
57233;SDS011;43090;52.604;13.318;2023-07-13T07:49:55;7.13;;;2.05;;
57233;SDS011;43090;52.604;13.318;2023-07-13T07:52:22;2.58;;;1.48;;
57233;SDS011;43090;52.604;13.318;2023-07-13T07:54:49;3.90;;;1.40;;
57233;SDS011;43090;52.604;13.318;2023-07-13T07:57:18;3.65;;;1.55;;
57233;SDS011;43090;52.604;13.318;2023-07-13T08:00:05;3.92;;;1.75;;
57233;SDS011;43090;52.604;13.318;2023-07-13T08:02:35;9.68;;;1.52;;
57233;SDS011;43090;52.604;13.318;2023-07-13T08:05:04;6.40;;;1.65;;
57233;SDS011;43090;52.604;13.318;2023-07-13T08:07:34;5.03;;;1.50;;
57233;SDS011;43090;52.604;13.318;2023-07-13T08:10:01;3.42;;;1.27;;
57233;SDS011;43090;52.604;13.318;2023-07-13T08:14:57;9.77;;;1.17;;
57233;SDS011;43090;52.604;13.318;2023-07-13T08:17:24;6.57;;;1.17;;
57233;SDS011;43090;52.604;13.318;2023-07-13T08:19:52;3.55;;;1.38;;
57233;SDS011;43090;52.604;13.318;2023-07-13T08:22:19;2.97;;;1.30;;
57233;SDS011;43090;52.604;13.318;2023-07-13T08:29:39;3.72;;;1.35;;
57233;SDS011;43090;52.604;13.318;2023-07-13T08:32:06;3.53;;;1.17;;
57233;SDS011;43090;52.604;13.318;2023-07-13T08:34:37;4.85;;;1.17;;
57233;SDS011;43090;52.604;13.318;2023-07-13T08:39:30;5.45;;;1.35;;
57233;SDS011;43090;52.604;13.318;2023-07-13T08:41:59;3.42;;;1.27;;
57233;SDS011;43090;52.604;13.318;2023-07-13T08:44:39;4.95;;;1.00;;
57233;SDS011;43090;52.604;13.318;2023-07-13T08:47:16;3.53;;;0.90;;
57233;SDS011;43090;52.604;13.318;2023-07-13T08:49:43;3.33;;;1.10;;
57233;SDS011;43090;52.604;13.318;2023-07-13T08:52:12;5.72;;;1.20;;
57233;SDS011;43090;52.604;13.318;2023-07-13T08:54:50;6.13;;;1.20;;
57233;SDS011;43090;52.604;13.318;2023-07-13T08:57:21;3.63;;;1.40;;
57233;SDS011;43090;52.604;13.318;2023-07-13T08:59:54;6.30;;;1.70;;
57233;SDS011;43090;52.604;13.318;2023-07-13T09:04:59;4.38;;;1.35;;
57233;SDS011;43090;52.604;13.318;2023-07-13T09:07:34;5.05;;;1.20;;
57233;SDS011;43090;52.604;13.318;2023-07-13T09:15:17;3.05;;;1.02;;
57233;SDS011;43090;52.604;13.318;2023-07-13T09:17:52;4.95;;;1.40;;
57233;SDS011;43090;52.604;13.318;2023-07-13T09:20:27;2.38;;;0.93;;
57233;SDS011;43090;52.604;13.318;2023-07-13T09:23:01;8.05;;;1.83;;
57233;SDS011;43090;52.604;13.318;2023-07-13T09:25:33;5.68;;;1.80;;
57233;SDS011;43090;52.604;13.318;2023-07-13T09:33:20;6.15;;;1.08;;
57233;SDS011;43090;52.604;13.318;2023-07-13T09:35:47;7.85;;;1.50;;
57233;SDS011;43090;52.604;13.318;2023-07-13T09:38:14;7.95;;;1.58;;
57233;SDS011;43090;52.604;13.318;2023-07-13T09:40:59;3.10;;;1.27;;
57233;SDS011;43090;52.604;13.318;2023-07-13T09:43:36;2.83;;;1.20;;
57233;SDS011;43090;52.604;13.318;2023-07-13T09:48:34;6.93;;;1.60;;
57233;SDS011;43090;52.604;13.318;2023-07-13T09:51:13;3.00;;;1.40;;
57233;SDS011;43090;52.604;13.318;2023-07-13T09:53:42;4.05;;;1.40;;
57233;SDS011;43090;52.604;13.318;2023-07-13T09:56:21;5.65;;;1.50;;
57233;SDS011;43090;52.604;13.318;2023-07-13T09:58:53;3.33;;;1.33;;
57233;SDS011;43090;52.604;13.318;2023-07-13T10:04:10;7.53;;;1.65;;
57233;SDS011;43090;52.604;13.318;2023-07-13T10:06:46;2.97;;;1.27;;
57233;SDS011;43090;52.604;13.318;2023-07-13T10:09:16;4.18;;;1.65;;
57233;SDS011;43090;52.604;13.318;2023-07-13T10:11:43;5.43;;;1.60;;
57233;SDS011;43090;52.604;13.318;2023-07-13T10:14:12;6.78;;;2.10;;
57233;SDS011;43090;52.604;13.318;2023-07-13T10:16:39;14.15;;;1.95;;
57233;SDS011;43090;52.604;13.318;2023-07-13T10:22:03;9.00;;;2.30;;
57233;SDS011;43090;52.604;13.318;2023-07-13T10:24:47;6.43;;;2.50;;
57233;SDS011;43090;52.604;13.318;2023-07-13T10:27:18;5.97;;;2.03;;
57233;SDS011;43090;52.604;13.318;2023-07-13T10:29:53;8.35;;;2.20;;
57233;SDS011;43090;52.604;13.318;2023-07-13T10:32:27;8.70;;;1.90;;
57233;SDS011;43090;52.604;13.318;2023-07-13T10:34:54;3.55;;;1.77;;
57233;SDS011;43090;52.604;13.318;2023-07-13T10:37:23;7.13;;;2.00;;
57233;SDS011;43090;52.604;13.318;2023-07-13T10:39:54;7.38;;;2.30;;
57233;SDS011;43090;52.604;13.318;2023-07-13T10:42:26;7.78;;;2.30;;
57233;SDS011;43090;52.604;13.318;2023-07-13T10:44:55;5.65;;;2.00;;
57233;SDS011;43090;52.604;13.318;2023-07-13T10:47:21;6.05;;;2.17;;
57233;SDS011;43090;52.604;13.318;2023-07-13T10:49:49;7.03;;;2.00;;
57233;SDS011;43090;52.604;13.318;2023-07-13T11:01:10;3.55;;;1.90;;
57233;SDS011;43090;52.604;13.318;2023-07-13T11:06:11;8.95;;;3.15;;
57233;SDS011;43090;52.604;13.318;2023-07-13T11:18:50;5.38;;;2.38;;
57233;SDS011;43090;52.604;13.318;2023-07-13T11:21:19;4.10;;;1.70;;
57233;SDS011;43090;52.604;13.318;2023-07-13T11:24:04;3.92;;;1.90;;
57233;SDS011;43090;52.604;13.318;2023-07-13T11:31:41;3.90;;;1.60;;
57233;SDS011;43090;52.604;13.318;2023-07-13T11:34:12;4.32;;;1.83;;
57233;SDS011;43090;52.604;13.318;2023-07-13T11:36:44;10.07;;;2.00;;
57233;SDS011;43090;52.604;13.318;2023-07-13T11:39:13;2.70;;;1.85;;
57233;SDS011;43090;52.604;13.318;2023-07-13T11:41:52;5.90;;;2.05;;
57233;SDS011;43090;52.604;13.318;2023-07-13T11:44:23;5.80;;;2.40;;
57233;SDS011;43090;52.604;13.318;2023-07-13T11:46:53;6.03;;;2.00;;
57233;SDS011;43090;52.604;13.318;2023-07-13T11:49:25;4.70;;;1.70;;
57233;SDS011;43090;52.604;13.318;2023-07-13T11:54:29;9.43;;;2.40;;
57233;SDS011;43090;52.604;13.318;2023-07-13T11:57:01;7.03;;;2.40;;
57233;SDS011;43090;52.604;13.318;2023-07-13T11:59:46;6.97;;;2.47;;
57233;SDS011;43090;52.604;13.318;2023-07-13T12:04:49;4.53;;;1.90;;
57233;SDS011;43090;52.604;13.318;2023-07-13T12:07:18;9.55;;;2.00;;
57233;SDS011;43090;52.604;13.318;2023-07-13T12:09:46;5.60;;;1.95;;
57233;SDS011;43090;52.604;13.318;2023-07-13T12:12:13;6.63;;;2.38;;
57233;SDS011;43090;52.604;13.318;2023-07-13T12:14:43;9.70;;;2.40;;
57233;SDS011;43090;52.604;13.318;2023-07-13T12:22:16;4.80;;;2.10;;
57233;SDS011;43090;52.604;13.318;2023-07-13T12:24:46;3.78;;;1.85;;
57233;SDS011;43090;52.604;13.318;2023-07-13T12:27:20;11.90;;;2.35;;
57233;SDS011;43090;52.604;13.318;2023-07-13T12:29:50;4.72;;;2.15;;
57233;SDS011;43090;52.604;13.318;2023-07-13T12:32:31;4.78;;;1.63;;
57233;SDS011;43090;52.604;13.318;2023-07-13T12:35:07;6.53;;;1.83;;
57233;SDS011;43090;52.604;13.318;2023-07-13T12:37:43;5.50;;;1.70;;
57233;SDS011;43090;52.604;13.318;2023-07-13T12:40:16;5.72;;;1.90;;
57233;SDS011;43090;52.604;13.318;2023-07-13T12:42:49;4.40;;;1.53;;
57233;SDS011;43090;52.604;13.318;2023-07-13T12:45:19;7.03;;;2.22;;
57233;SDS011;43090;52.604;13.318;2023-07-13T12:47:48;6.53;;;1.88;;
57233;SDS011;43090;52.604;13.318;2023-07-13T12:50:17;11.73;;;2.70;;
57233;SDS011;43090;52.604;13.318;2023-07-13T12:52:50;4.47;;;2.05;;
57233;SDS011;43090;52.604;13.318;2023-07-13T13:00:23;8.05;;;1.77;;
57233;SDS011;43090;52.604;13.318;2023-07-13T13:02:55;6.47;;;1.73;;
57233;SDS011;43090;52.604;13.318;2023-07-13T13:05:49;7.72;;;1.98;;
57233;SDS011;43090;52.604;13.318;2023-07-13T13:08:34;6.38;;;1.85;;
57233;SDS011;43090;52.604;13.318;2023-07-13T13:11:02;7.43;;;2.17;;
57233;SDS011;43090;52.604;13.318;2023-07-13T13:13:39;8.40;;;2.25;;
57233;SDS011;43090;52.604;13.318;2023-07-13T13:18:37;5.97;;;2.30;;
57233;SDS011;43090;52.604;13.318;2023-07-13T13:23:31;4.93;;;1.63;;
57233;SDS011;43090;52.604;13.318;2023-07-13T13:25:58;6.55;;;1.85;;
57233;SDS011;43090;52.604;13.318;2023-07-13T13:28:25;6.43;;;1.95;;
57233;SDS011;43090;52.604;13.318;2023-07-13T13:30:55;5.93;;;1.83;;
57233;SDS011;43090;52.604;13.318;2023-07-13T13:33:27;13.77;;;2.22;;
57233;SDS011;43090;52.604;13.318;2023-07-13T13:38:22;5.45;;;1.48;;
57233;SDS011;43090;52.604;13.318;2023-07-13T13:40:51;4.47;;;1.45;;
57233;SDS011;43090;52.604;13.318;2023-07-13T13:43:22;6.75;;;1.73;;
57233;SDS011;43090;52.604;13.318;2023-07-13T13:45:56;5.38;;;1.75;;
57233;SDS011;43090;52.604;13.318;2023-07-13T13:48:28;7.65;;;1.83;;
57233;SDS011;43090;52.604;13.318;2023-07-13T13:50:57;7.40;;;1.90;;
57233;SDS011;43090;52.604;13.318;2023-07-13T13:53:25;6.20;;;1.55;;
57233;SDS011;43090;52.604;13.318;2023-07-13T13:58:19;5.77;;;1.47;;
57233;SDS011;43090;52.604;13.318;2023-07-13T14:00:46;8.05;;;1.60;;
57233;SDS011;43090;52.604;13.318;2023-07-13T14:03:18;4.45;;;1.75;;
57233;SDS011;43090;52.604;13.318;2023-07-13T14:05:46;4.95;;;1.40;;
57233;SDS011;43090;52.604;13.318;2023-07-13T14:08:19;3.63;;;1.83;;
57233;SDS011;43090;52.604;13.318;2023-07-13T14:10:48;2.70;;;1.08;;
57233;SDS011;43090;52.604;13.318;2023-07-13T14:13:28;6.97;;;1.45;;
57233;SDS011;43090;52.604;13.318;2023-07-13T14:16:00;3.17;;;1.30;;
57233;SDS011;43090;52.604;13.318;2023-07-13T14:18:27;3.35;;;1.55;;
57233;SDS011;43090;52.604;13.318;2023-07-13T14:20:54;7.50;;;1.15;;
57233;SDS011;43090;52.604;13.318;2023-07-13T14:25:47;8.40;;;1.45;;
57233;SDS011;43090;52.604;13.318;2023-07-13T14:28:17;5.10;;;1.08;;
57233;SDS011;43090;52.604;13.318;2023-07-13T14:30:49;2.53;;;1.30;;
57233;SDS011;43090;52.604;13.318;2023-07-13T14:33:17;4.22;;;1.45;;
57233;SDS011;43090;52.604;13.318;2023-07-13T14:35:44;7.75;;;1.38;;
57233;SDS011;43090;52.604;13.318;2023-07-13T14:40:39;4.45;;;1.20;;
57233;SDS011;43090;52.604;13.318;2023-07-13T14:43:09;5.57;;;1.45;;
57233;SDS011;43090;52.604;13.318;2023-07-13T14:45:41;3.22;;;1.20;;
57233;SDS011;43090;52.604;13.318;2023-07-13T14:48:20;6.72;;;1.55;;
57233;SDS011;43090;52.604;13.318;2023-07-13T14:50:50;7.05;;;1.20;;
57233;SDS011;43090;52.604;13.318;2023-07-13T14:53:20;3.97;;;0.93;;
57233;SDS011;43090;52.604;13.318;2023-07-13T14:55:48;5.38;;;1.20;;
57233;SDS011;43090;52.604;13.318;2023-07-13T14:58:15;3.70;;;1.20;;
57233;SDS011;43090;52.604;13.318;2023-07-13T15:00:42;5.35;;;1.20;;
57233;SDS011;43090;52.604;13.318;2023-07-13T15:03:17;2.50;;;1.00;;
57233;SDS011;43090;52.604;13.318;2023-07-13T15:05:50;4.78;;;1.30;;
57233;SDS011;43090;52.604;13.318;2023-07-13T15:08:18;4.07;;;1.13;;
57233;SDS011;43090;52.604;13.318;2023-07-13T15:13:15;3.58;;;0.95;;
57233;SDS011;43090;52.604;13.318;2023-07-13T15:15:46;6.20;;;0.90;;
57233;SDS011;43090;52.604;13.318;2023-07-13T15:18:15;3.65;;;1.10;;
57233;SDS011;43090;52.604;13.318;2023-07-13T15:20:48;3.25;;;1.00;;
57233;SDS011;43090;52.604;13.318;2023-07-13T15:23:16;3.25;;;0.80;;
57233;SDS011;43090;52.604;13.318;2023-07-13T15:25:44;3.03;;;1.00;;
57233;SDS011;43090;52.604;13.318;2023-07-13T15:28:12;3.30;;;1.02;;
57233;SDS011;43090;52.604;13.318;2023-07-13T15:33:11;6.80;;;1.10;;
57233;SDS011;43090;52.604;13.318;2023-07-13T15:35:49;3.00;;;1.45;;
57233;SDS011;43090;52.604;13.318;2023-07-13T15:38:18;3.05;;;1.10;;
57233;SDS011;43090;52.604;13.318;2023-07-13T15:40:47;4.75;;;1.02;;
57233;SDS011;43090;52.604;13.318;2023-07-13T15:43:15;5.07;;;1.20;;
57233;SDS011;43090;52.604;13.318;2023-07-13T15:45:43;5.20;;;0.98;;
57233;SDS011;43090;52.604;13.318;2023-07-13T15:50:47;8.57;;;0.88;;
57233;SDS011;43090;52.604;13.318;2023-07-13T15:55:47;5.20;;;1.55;;
57233;SDS011;43090;52.604;13.318;2023-07-13T15:58:13;2.20;;;1.02;;
57233;SDS011;43090;52.604;13.318;2023-07-13T16:00:41;6.25;;;1.00;;
57233;SDS011;43090;52.604;13.318;2023-07-13T16:03:08;2.75;;;1.30;;
57233;SDS011;43090;52.604;13.318;2023-07-13T16:05:35;2.42;;;0.95;;
57233;SDS011;43090;52.604;13.318;2023-07-13T16:08:04;4.00;;;1.20;;
57233;SDS011;43090;52.604;13.318;2023-07-13T16:10:34;2.63;;;0.98;;
57233;SDS011;43090;52.604;13.318;2023-07-13T16:13:12;5.53;;;0.90;;
57233;SDS011;43090;52.604;13.318;2023-07-13T16:15:40;4.80;;;1.27;;
57233;SDS011;43090;52.604;13.318;2023-07-13T16:18:11;3.88;;;0.82;;
57233;SDS011;43090;52.604;13.318;2023-07-13T16:20:45;3.10;;;0.98;;
57233;SDS011;43090;52.604;13.318;2023-07-13T16:23:13;5.38;;;1.20;;
57233;SDS011;43090;52.604;13.318;2023-07-13T16:25:41;3.47;;;1.10;;
57233;SDS011;43090;52.604;13.318;2023-07-13T16:28:09;7.53;;;1.33;;
57233;SDS011;43090;52.604;13.318;2023-07-13T16:30:36;2.85;;;0.82;;
57233;SDS011;43090;52.604;13.318;2023-07-13T16:33:03;6.00;;;1.23;;
57233;SDS011;43090;52.604;13.318;2023-07-13T16:35:34;3.78;;;1.00;;
57233;SDS011;43090;52.604;13.318;2023-07-13T16:38:03;3.45;;;0.80;;
57233;SDS011;43090;52.604;13.318;2023-07-13T16:40:38;3.90;;;1.17;;
57233;SDS011;43090;52.604;13.318;2023-07-13T16:45:32;3.85;;;0.90;;
57233;SDS011;43090;52.604;13.318;2023-07-13T16:48:01;3.55;;;1.55;;
57233;SDS011;43090;52.604;13.318;2023-07-13T16:50:37;3.25;;;1.00;;
57233;SDS011;43090;52.604;13.318;2023-07-13T16:53:08;3.60;;;1.33;;
57233;SDS011;43090;52.604;13.318;2023-07-13T16:55:41;4.15;;;1.00;;
57233;SDS011;43090;52.604;13.318;2023-07-13T17:00:36;11.80;;;1.63;;
57233;SDS011;43090;52.604;13.318;2023-07-13T17:03:04;10.35;;;1.75;;
57233;SDS011;43090;52.604;13.318;2023-07-13T17:05:36;9.52;;;2.22;;
57233;SDS011;43090;52.604;13.318;2023-07-13T17:08:11;13.38;;;2.47;;
57233;SDS011;43090;52.604;13.318;2023-07-13T17:10:40;14.38;;;2.03;;
57233;SDS011;43090;52.604;13.318;2023-07-13T17:13:11;10.40;;;2.03;;
57233;SDS011;43090;52.604;13.318;2023-07-13T17:15:39;11.82;;;1.80;;
57233;SDS011;43090;52.604;13.318;2023-07-13T17:20:42;6.50;;;2.15;;
57233;SDS011;43090;52.604;13.318;2023-07-13T17:23:16;9.65;;;2.03;;
57233;SDS011;43090;52.604;13.318;2023-07-13T17:25:45;8.05;;;1.55;;
57233;SDS011;43090;52.604;13.318;2023-07-13T17:28:13;4.75;;;1.83;;
57233;SDS011;43090;52.604;13.318;2023-07-13T17:30:41;11.93;;;1.73;;
57233;SDS011;43090;52.604;13.318;2023-07-13T17:33:18;5.90;;;1.73;;
57233;SDS011;43090;52.604;13.318;2023-07-13T17:35:54;3.40;;;1.65;;